X  Schließen METAR Luftfahrt Wetterdaten     EDDH Hamburg Helmut Schmidt Airport
Temperatur
5°C Temperatur
2°C Taupunkt
81% Feuchtigkeit



Wind
23 KM/S
14 MPS
6 M/S
12 KTS



230°
SW
Aktuelle Wetterlage

Meistens bewölkt Meistens bewölkt
Luftdruck 1022.92 (hPa) - 30.21 (inHg)
Sichtweite 6.2 (Meile) - 10 (Km)
Flughafen
Flughafen Code EDDH

Position : Hamburg Helmut Schmidt Airport
Entfernung: 11 (Km)

Metar:
EDDH 282350Z 23012KT 9999 BKN016 05/02 Q1023 BECMG BKN012

Zeit: 29-01-2022 00:50 CET